Time,TemperatureF,DewpointF,PressureIn,WindDirection,WindDirectionDegrees,WindSpeedMPH,WindSpeedGustMPH,Humidity,HourlyPrecipIn,Conditions,Clouds,dailyrainin,SoftwareType,DateUTC
2013-01-17 00:06:00,32.2,30.0,29.82,ESE,105,4.0,7.0,93,0.00,,,0.00,weatherlink.com 1.10,2013-01-17 05:06:00,
2013-01-17 00:22:00,32.0,30.0,29.83,SE,132,4.0,10.0,93,0.00,,,0.00,weatherlink.com 1.10,2013-01-17 05:22:00,
2013-01-17 00:37:00,32.0,30.0,29.84,SSE,162,0.0,8.0,93,0.00,,,0.00,weatherlink.com 1.10,2013-01-17 05:37:00,
2013-01-17 00:53:00,31.9,30.0,29.84,SSE,153,0.0,8.0,93,0.00,,,0.00,weatherlink.com 1.10,2013-01-17 05:53:00,
2013-01-17 01:09:00,31.7,30.0,29.86,East,91,2.0,9.0,93,0.00,,,0.00,weatherlink.com 1.10,2013-01-17 06:09:00,
2013-01-17 01:25:00,31.7,30.0,29.86,SE,138,3.0,9.0,93,0.00,,,0.00,weatherlink.com 1.10,2013-01-17 06:25:00,
2013-01-17 01:40:00,31.6,30.0,29.86,SE,125,2.0,6.0,93,0.00,,,0.00,weatherlink.com 1.10,2013-01-17 06:40:00,
2013-01-17 01:56:00,31.3,30.0,29.86,ESE,109,1.0,7.0,93,0.00,,,0.00,weatherlink.com 1.10,2013-01-17 06:56:00,
2013-01-17 02:12:00,31.0,29.0,29.86,ESE,103,2.0,4.0,93,0.00,,,0.00,weatherlink.com 1.10,2013-01-17 07:12:00,
2013-01-17 02:28:00,30.7,29.0,29.86,SE,124,0.0,4.0,93,0.00,,,0.00,weatherlink.com 1.10,2013-01-17 07:28:00,
2013-01-17 02:44:00,30.5,29.0,29.85,SE,128,2.0,3.0,93,0.00,,,0.00,weatherlink.com 1.10,2013-01-17 07:44:00,
2013-01-17 02:59:00,30.7,29.0,29.85,East,95,2.0,3.0,93,0.00,,,0.00,weatherlink.com 1.10,2013-01-17 07:59:00,
2013-01-17 03:15:00,30.8,29.0,29.84,East,79,2.0,3.0,92,0.00,,,0.00,weatherlink.com 1.10,2013-01-17 08:15:00,
2013-01-17 03:31:00,30.9,29.0,29.85,ESE,116,2.0,4.0,91,0.00,,,0.00,weatherlink.com 1.10,2013-01-17 08:31:00,
2013-01-17 03:47:00,31.4,29.0,29.86,ESE,122,3.0,5.0,90,0.00,,,0.00,weatherlink.com 1.10,2013-01-17 08:47:00,
2013-01-17 04:03:00,31.9,29.0,29.86,ESE,114,4.0,8.0,89,0.00,,,0.00,weatherlink.com 1.10,2013-01-17 09:03:00,
2013-01-17 04:18:00,32.1,29.0,29.86,ESE,108,3.0,6.0,88,0.00,,,0.00,weatherlink.com 1.10,2013-01-17 09:18:00,
2013-01-17 04:34:00,32.5,29.0,29.86,East,79,2.0,5.0,87,0.00,,,0.00,weatherlink.com 1.10,2013-01-17 09:34:00,
2013-01-17 04:50:00,33.0,29.0,29.86,East,90,1.0,3.0,85,0.00,,,0.00,weatherlink.com 1.10,2013-01-17 09:50:00,
2013-01-17 05:06:00,33.3,29.0,29.86,ENE,67,2.0,5.0,84,0.00,,,0.00,weatherlink.com 1.10,2013-01-17 10:06:00,
2013-01-17 05:21:00,33.4,29.0,29.87,SE,124,2.0,3.0,83,0.00,,,0.00,weatherlink.com 1.10,2013-01-17 10:21:00,
2013-01-17 05:37:00,33.7,29.0,29.87,ESE,121,4.0,4.0,82,0.00,,,0.00,weatherlink.com 1.10,2013-01-17 10:37:00,
2013-01-17 06:09:00,34.2,29.0,29.88,ESE,115,2.0,2.0,80,0.00,,,0.00,weatherlink.com 1.10,2013-01-17 11:09:00,
2013-01-17 06:25:00,34.1,29.0,29.89,East,85,1.0,2.0,80,0.00,,,0.00,weatherlink.com 1.10,2013-01-17 11:25:00,
2013-01-17 06:41:00,34.2,29.0,29.89,East,88,0.0,3.0,80,0.00,,,0.00,weatherlink.com 1.10,2013-01-17 11:41:00,
2013-01-17 06:56:00,34.2,29.0,29.91,East,101,0.0,2.0,80,0.00,,,0.00,weatherlink.com 1.10,2013-01-17 11:56:00,
2013-01-17 07:12:00,34.2,29.0,29.92,NNW,336,0.0,2.0,81,0.00,,,0.00,weatherlink.com 1.10,2013-01-17 12:12:00,
2013-01-17 07:28:00,34.3,29.0,29.92,ESE,111,1.0,2.0,80,0.00,,,0.00,weatherlink.com 1.10,2013-01-17 12:28:00,
2013-01-17 07:43:00,34.2,29.0,29.93,ESE,117,0.0,1.0,81,0.00,,,0.00,weatherlink.com 1.10,2013-01-17 12:43:00,
2013-01-17 07:59:00,34.2,30.0,29.94,ESE,117,0.0,1.0,83,0.00,,,0.00,weatherlink.com 1.10,2013-01-17 12:59:00,
2013-01-17 08:15:00,34.6,29.0,29.95,WNW,295,1.0,4.0,80,0.00,,,0.00,weatherlink.com 1.10,2013-01-17 13:15:00,
2013-01-17 08:31:00,35.3,29.0,29.95,NNW,345,0.0,1.0,79,0.00,,,0.00,weatherlink.com 1.10,2013-01-17 13:31:00,
2013-01-17 08:47:00,36.9,30.0,29.95,SE,125,0.0,1.0,76,0.00,,,0.00,weatherlink.com 1.10,2013-01-17 13:47:00,
2013-01-17 09:02:00,37.9,30.0,29.95,WNW,302,0.0,5.0,73,0.00,,,0.00,weatherlink.com 1.10,2013-01-17 14:02:00,
2013-01-17 09:18:00,37.5,30.0,29.96,NNW,329,1.0,5.0,74,0.00,,,0.00,weatherlink.com 1.10,2013-01-17 14:18:00,
2013-01-17 09:34:00,37.5,30.0,29.96,West,271,3.0,12.0,73,0.00,,,0.00,weatherlink.com 1.10,2013-01-17 14:34:00,
2013-01-17 09:50:00,37.7,30.0,29.96,WNW,300,2.0,7.0,73,0.00,,,0.00,weatherlink.com 1.10,2013-01-17 14:50:00,
2013-01-17 10:06:00,37.6,30.0,29.97,NW,320,3.0,8.0,73,0.00,,,0.00,weatherlink.com 1.10,2013-01-17 15:06:00,
2013-01-17 10:22:00,37.5,30.0,29.98,NW,317,3.0,7.0,74,0.00,,,0.00,weatherlink.com 1.10,2013-01-17 15:22:00,
2013-01-17 10:37:00,37.5,30.0,29.99,WNW,291,3.0,9.0,75,0.00,,,0.00,weatherlink.com 1.10,2013-01-17 15:37:00,
2013-01-17 10:53:00,37.9,31.0,29.99,NW,321,1.0,11.0,75,0.00,,,0.00,weatherlink.com 1.10,2013-01-17 15:53:00,
2013-01-17 11:09:00,38.2,31.0,29.99,SSE,159,3.0,12.0,74,0.00,,,0.00,weatherlink.com 1.10,2013-01-17 16:09:00,
2013-01-17 11:25:00,38.5,31.0,29.99,WNW,299,4.0,9.0,73,0.00,,,0.00,weatherlink.com 1.10,2013-01-17 16:25:00,
2013-01-17 11:40:00,38.3,30.0,29.99,NW,321,3.0,12.0,71,0.02,,,0.02,weatherlink.com 1.10,2013-01-17 16:40:00,
2013-01-17 11:56:00,37.9,30.0,29.99,WNW,291,4.0,17.0,72,0.04,,,0.04,weatherlink.com 1.10,2013-01-17 16:56:00,
2013-01-17 12:12:00,37.5,28.0,29.99,NW,304,8.0,22.0,68,0.06,,,0.06,weatherlink.com 1.10,2013-01-17 17:12:00,
2013-01-17 12:28:00,37.4,27.0,29.99,NW,314,4.0,19.0,66,0.08,,,0.08,weatherlink.com 1.10,2013-01-17 17:28:00,
2013-01-17 12:44:00,37.1,28.0,30.01,NW,318,12.0,14.0,68,0.07,,,0.09,weatherlink.com 1.10,2013-01-17 17:44:00,
2013-01-17 12:59:00,36.8,27.0,30.01,NW,323,5.0,19.0,68,0.06,,,0.10,weatherlink.com 1.10,2013-01-17 17:59:00,
2013-01-17 13:15:00,36.3,25.0,30.02,NNW,339,14.0,22.0,63,0.05,,,0.11,weatherlink.com 1.10,2013-01-17 18:15:00,
2013-01-17 13:31:00,36.0,24.0,30.02,NNW,332,12.0,16.0,62,0.04,,,0.12,weatherlink.com 1.10,2013-01-17 18:31:00,
2013-01-17 13:47:00,35.4,24.0,30.02,NNW,335,8.0,15.0,63,0.04,,,0.13,weatherlink.com 1.10,2013-01-17 18:47:00,
2013-01-17 14:03:00,35.4,24.0,30.03,WNW,293,5.0,13.0,64,0.03,,,0.14,weatherlink.com 1.10,2013-01-17 19:03:00,
2013-01-17 14:19:00,35.1,24.0,30.04,NW,309,6.0,10.0,64,0.04,,,0.15,weatherlink.com 1.10,2013-01-17 19:19:00,
2013-01-17 14:34:00,33.9,23.0,30.04,WNW,301,5.0,14.0,63,0.03,,,0.15,weatherlink.com 1.10,2013-01-17 19:34:00,
2013-01-17 14:50:00,33.5,22.0,30.05,NNW,330,4.0,15.0,63,0.03,,,0.16,weatherlink.com 1.10,2013-01-17 19:50:00,
2013-01-17 15:06:00,33.2,22.0,30.06,NNE,13,7.0,11.0,64,0.02,,,0.16,weatherlink.com 1.10,2013-01-17 20:06:00,
2013-01-17 15:22:00,32.5,21.0,30.05,NNW,331,5.0,11.0,63,0.01,,,0.16,weatherlink.com 1.10,2013-01-17 20:22:00,
2013-01-17 15:37:00,31.8,21.0,30.05,NNW,339,6.0,15.0,64,0.01,,,0.16,weatherlink.com 1.10,2013-01-17 20:37:00,
2013-01-17 15:53:00,31.2,21.0,30.07,WNW,295,3.0,14.0,65,0.00,,,0.16,weatherlink.com 1.10,2013-01-17 20:53:00,
2013-01-17 16:09:00,30.8,20.0,30.06,NW,317,5.0,9.0,65,0.00,,,0.16,weatherlink.com 1.10,2013-01-17 21:09:00,
2013-01-17 16:25:00,30.0,18.0,30.08,NNW,345,13.0,13.0,61,0.00,,,0.16,weatherlink.com 1.10,2013-01-17 21:25:00,
2013-01-17 16:41:00,29.3,18.0,30.08,NNW,335,6.0,9.0,61,0.00,,,0.16,weatherlink.com 1.10,2013-01-17 21:41:00,
2013-01-17 16:57:00,28.8,17.0,30.09,NW,326,4.0,7.0,61,0.00,,,0.16,weatherlink.com 1.10,2013-01-17 21:57:00,
2013-01-17 17:12:00,28.2,15.0,30.10,WNW,286,3.0,14.0,58,0.00,,,0.16,weatherlink.com 1.10,2013-01-17 22:12:00,
2013-01-17 17:28:00,28.0,14.0,30.10,NW,321,3.0,12.0,56,0.00,,,0.16,weatherlink.com 1.10,2013-01-17 22:28:00,
2013-01-17 17:44:00,27.7,14.0,30.10,WNW,303,0.0,8.0,56,0.00,,,0.16,weatherlink.com 1.10,2013-01-17 22:44:00,
2013-01-17 18:00:00,27.4,14.0,30.11,WNW,283,0.0,9.0,56,0.00,,,0.16,weatherlink.com 1.10,2013-01-17 23:00:00,
2013-01-17 18:16:00,27.2,14.0,30.12,NNW,340,3.0,8.0,56,0.00,,,0.16,weatherlink.com 1.10,2013-01-17 23:16:00,
2013-01-17 18:32:00,27.0,13.0,30.12,NW,307,10.0,10.0,55,0.00,,,0.16,weatherlink.com 1.10,2013-01-17 23:32:00,
2013-01-17 18:47:00,26.7,13.0,30.13,North,9,3.0,7.0,55,0.00,,,0.16,weatherlink.com 1.10,2013-01-17 23:47:00,
2013-01-17 19:03:00,26.5,12.0,30.14,WNW,294,2.0,7.0,54,0.00,,,0.16,weatherlink.com 1.10,2013-01-18 00:03:00,
2013-01-17 19:19:00,26.3,11.0,30.13,NNW,345,4.0,6.0,53,0.00,,,0.16,weatherlink.com 1.10,2013-01-18 00:19:00,
2013-01-17 19:35:00,26.1,12.0,30.14,WNW,283,1.0,8.0,55,0.00,,,0.16,weatherlink.com 1.10,2013-01-18 00:35:00,
2013-01-17 19:50:00,26.0,12.0,30.14,NNW,335,2.0,7.0,54,0.00,,,0.16,weatherlink.com 1.10,2013-01-18 00:50:00,
2013-01-17 20:07:00,25.9,12.0,30.13,NNW,345,3.0,5.0,55,0.00,,,0.16,weatherlink.com 1.10,2013-01-18 01:07:00,
2013-01-17 20:22:00,25.7,11.0,30.12,NW,305,2.0,7.0,54,0.00,,,0.16,weatherlink.com 1.10,2013-01-18 01:22:00,
2013-01-17 20:38:00,25.5,11.0,30.12,North,349,10.0,10.0,53,0.00,,,0.16,weatherlink.com 1.10,2013-01-18 01:38:00,
2013-01-17 20:54:00,25.4,11.0,30.12,NW,309,0.0,6.0,54,0.00,,,0.16,weatherlink.com 1.10,2013-01-18 01:54:00,
2013-01-17 21:10:00,25.4,11.0,30.10,NNE,23,3.0,6.0,54,0.00,,,0.16,weatherlink.com 1.10,2013-01-18 02:10:00,
2013-01-17 21:25:00,25.0,10.0,30.10,NW,313,0.0,6.0,53,0.00,,,0.16,weatherlink.com 1.10,2013-01-18 02:25:00,
2013-01-17 21:41:00,25.0,11.0,30.09,NNW,338,0.0,3.0,55,0.00,,,0.16,weatherlink.com 1.10,2013-01-18 02:41:00,
2013-01-17 21:57:00,24.8,11.0,30.09,NNW,340,4.0,5.0,55,0.00,,,0.16,weatherlink.com 1.10,2013-01-18 02:57:00,
2013-01-17 22:13:00,24.7,11.0,30.09,North,1,0.0,3.0,55,0.00,,,0.16,weatherlink.com 1.10,2013-01-18 03:13:00,
2013-01-17 22:29:00,24.5,10.0,30.08,WNW,295,0.0,7.0,53,0.00,,,0.16,weatherlink.com 1.10,2013-01-18 03:29:00,
2013-01-17 22:44:00,24.4,11.0,30.06,WNW,300,2.0,4.0,56,0.00,,,0.16,weatherlink.com 1.10,2013-01-18 03:44:00,
2013-01-17 23:00:00,24.3,11.0,30.08,West,278,1.0,5.0,56,0.00,,,0.16,weatherlink.com 1.10,2013-01-18 04:00:00,
2013-01-17 23:16:00,24.1,11.0,30.08,WSW,246,2.0,6.0,56,0.00,,,0.16,weatherlink.com 1.10,2013-01-18 04:16:00,
2013-01-17 23:31:00,23.9,10.0,30.07,NNW,342,2.0,6.0,55,0.00,,,0.16,weatherlink.com 1.10,2013-01-18 04:31:00,
2013-01-17 23:47:00,23.8,10.0,30.07,WNW,285,1.0,7.0,55,0.00,,,0.16,weatherlink.com 1.10,2013-01-18 04:47:00,